sensor_id;sensor_type;location;lat;lon;timestamp;P1;durP1;ratioP1;P2;durP2;ratioP2
6422;SDS011;3244;42.708;23.288;2022-09-11T00:00:32;7.20;;;6.15;;
6422;SDS011;3244;42.708;23.288;2022-09-11T00:02:59;5.85;;;5.55;;
6422;SDS011;3244;42.708;23.288;2022-09-11T00:05:26;6.50;;;5.63;;
6422;SDS011;3244;42.708;23.288;2022-09-11T00:07:55;6.22;;;5.40;;
6422;SDS011;3244;42.708;23.288;2022-09-11T00:10:22;6.45;;;5.82;;
6422;SDS011;3244;42.708;23.288;2022-09-11T00:12:49;6.43;;;5.90;;
6422;SDS011;3244;42.708;23.288;2022-09-11T00:15:17;7.28;;;6.22;;
6422;SDS011;3244;42.708;23.288;2022-09-11T00:17:44;7.07;;;6.68;;
6422;SDS011;3244;42.708;23.288;2022-09-11T00:20:10;9.45;;;6.68;;
6422;SDS011;3244;42.708;23.288;2022-09-11T00:22:37;6.82;;;6.43;;
6422;SDS011;3244;42.708;23.288;2022-09-11T00:25:04;8.93;;;6.35;;
6422;SDS011;3244;42.708;23.288;2022-09-11T00:27:31;7.28;;;6.57;;
6422;SDS011;3244;42.708;23.288;2022-09-11T00:29:58;6.60;;;5.93;;
6422;SDS011;3244;42.708;23.288;2022-09-11T00:32:27;6.75;;;6.35;;
6422;SDS011;3244;42.708;23.288;2022-09-11T00:34:53;5.90;;;5.45;;
6422;SDS011;3244;42.708;23.288;2022-09-11T00:37:20;7.75;;;6.15;;
6422;SDS011;3244;42.708;23.288;2022-09-11T00:39:47;7.50;;;5.60;;
6422;SDS011;3244;42.708;23.288;2022-09-11T00:42:14;6.25;;;5.85;;
6422;SDS011;3244;42.708;23.288;2022-09-11T00:44:58;8.25;;;5.60;;
6422;SDS011;3244;42.708;23.288;2022-09-11T00:47:28;6.53;;;5.93;;
6422;SDS011;3244;42.708;23.288;2022-09-11T00:49:57;6.72;;;6.07;;
6422;SDS011;3244;42.708;23.288;2022-09-11T00:52:32;6.65;;;6.03;;
6422;SDS011;3244;42.708;23.288;2022-09-11T00:55:03;6.50;;;6.00;;
6422;SDS011;3244;42.708;23.288;2022-09-11T00:57:33;6.43;;;5.93;;
6422;SDS011;3244;42.708;23.288;2022-09-11T01:00:05;6.18;;;5.68;;
6422;SDS011;3244;42.708;23.288;2022-09-11T01:02:35;6.53;;;5.93;;
6422;SDS011;3244;42.708;23.288;2022-09-11T01:05:04;6.82;;;6.32;;
6422;SDS011;3244;42.708;23.288;2022-09-11T01:07:31;6.03;;;5.50;;
6422;SDS011;3244;42.708;23.288;2022-09-11T01:10:00;6.40;;;5.90;;
6422;SDS011;3244;42.708;23.288;2022-09-11T01:12:32;6.65;;;6.25;;
6422;SDS011;3244;42.708;23.288;2022-09-11T01:15:01;6.53;;;5.90;;
6422;SDS011;3244;42.708;23.288;2022-09-11T01:17:33;5.88;;;5.20;;
6422;SDS011;3244;42.708;23.288;2022-09-11T01:23:06;6.70;;;6.03;;
6422;SDS011;3244;42.708;23.288;2022-09-11T01:25:56;6.85;;;6.35;;
6422;SDS011;3244;42.708;23.288;2022-09-11T01:28:34;5.85;;;5.35;;
6422;SDS011;3244;42.708;23.288;2022-09-11T01:31:05;6.45;;;5.38;;
6422;SDS011;3244;42.708;23.288;2022-09-11T01:33:38;5.70;;;5.30;;
6422;SDS011;3244;42.708;23.288;2022-09-11T01:36:09;6.20;;;5.65;;
6422;SDS011;3244;42.708;23.288;2022-09-11T01:38:44;10.38;;;6.10;;
6422;SDS011;3244;42.708;23.288;2022-09-11T01:41:13;6.05;;;5.65;;
6422;SDS011;3244;42.708;23.288;2022-09-11T01:43:47;7.70;;;6.65;;
6422;SDS011;3244;42.708;23.288;2022-09-11T01:46:20;7.25;;;5.40;;
6422;SDS011;3244;42.708;23.288;2022-09-11T01:48:51;6.78;;;6.20;;
6422;SDS011;3244;42.708;23.288;2022-09-11T01:51:25;7.72;;;5.50;;
6422;SDS011;3244;42.708;23.288;2022-09-11T01:53:55;8.65;;;5.82;;
6422;SDS011;3244;42.708;23.288;2022-09-11T01:56:25;6.07;;;5.68;;
6422;SDS011;3244;42.708;23.288;2022-09-11T01:59:00;5.97;;;5.63;;
6422;SDS011;3244;42.708;23.288;2022-09-11T02:01:30;6.13;;;5.53;;
6422;SDS011;3244;42.708;23.288;2022-09-11T02:04:00;5.57;;;5.07;;
6422;SDS011;3244;42.708;23.288;2022-09-11T02:06:33;6.07;;;5.63;;
6422;SDS011;3244;42.708;23.288;2022-09-11T02:09:06;8.18;;;5.50;;
6422;SDS011;3244;42.708;23.288;2022-09-11T02:11:37;6.25;;;5.70;;
6422;SDS011;3244;42.708;23.288;2022-09-11T02:14:08;6.03;;;5.47;;
6422;SDS011;3244;42.708;23.288;2022-09-11T02:16:44;6.50;;;5.95;;
6422;SDS011;3244;42.708;23.288;2022-09-11T02:19:14;6.38;;;5.72;;
6422;SDS011;3244;42.708;23.288;2022-09-11T02:21:43;6.97;;;5.90;;
6422;SDS011;3244;42.708;23.288;2022-09-11T02:24:12;6.03;;;5.28;;
6422;SDS011;3244;42.708;23.288;2022-09-11T02:26:41;8.48;;;7.57;;
6422;SDS011;3244;42.708;23.288;2022-09-11T02:29:13;6.88;;;6.38;;
6422;SDS011;3244;42.708;23.288;2022-09-11T02:31:40;6.82;;;6.22;;
6422;SDS011;3244;42.708;23.288;2022-09-11T02:34:08;6.70;;;5.70;;
6422;SDS011;3244;42.708;23.288;2022-09-11T02:39:47;6.00;;;5.63;;
6422;SDS011;3244;42.708;23.288;2022-09-11T02:42:33;11.45;;;6.00;;
6422;SDS011;3244;42.708;23.288;2022-09-11T02:45:14;16.25;;;14.70;;
6422;SDS011;3244;42.708;23.288;2022-09-11T02:47:49;19.75;;;17.73;;
6422;SDS011;3244;42.708;23.288;2022-09-11T02:50:27;8.98;;;8.35;;
6422;SDS011;3244;42.708;23.288;2022-09-11T02:53:01;13.40;;;12.07;;
6422;SDS011;3244;42.708;23.288;2022-09-11T02:55:34;9.88;;;8.90;;
6422;SDS011;3244;42.708;23.288;2022-09-11T02:58:18;9.73;;;8.93;;
6422;SDS011;3244;42.708;23.288;2022-09-11T03:00:52;7.47;;;6.88;;
6422;SDS011;3244;42.708;23.288;2022-09-11T03:03:22;9.30;;;8.25;;
6422;SDS011;3244;42.708;23.288;2022-09-11T03:05:49;6.45;;;5.93;;
6422;SDS011;3244;42.708;23.288;2022-09-11T03:08:16;9.63;;;7.22;;
6422;SDS011;3244;42.708;23.288;2022-09-11T03:10:43;7.38;;;6.75;;
6422;SDS011;3244;42.708;23.288;2022-09-11T03:13:10;8.10;;;7.50;;
6422;SDS011;3244;42.708;23.288;2022-09-11T03:15:38;8.50;;;7.80;;
6422;SDS011;3244;42.708;23.288;2022-09-11T03:18:09;7.57;;;7.07;;
6422;SDS011;3244;42.708;23.288;2022-09-11T03:20:38;7.43;;;6.85;;
6422;SDS011;3244;42.708;23.288;2022-09-11T03:23:05;7.47;;;6.88;;
6422;SDS011;3244;42.708;23.288;2022-09-11T03:25:32;6.75;;;6.15;;
6422;SDS011;3244;42.708;23.288;2022-09-11T03:27:59;8.00;;;7.28;;
6422;SDS011;3244;42.708;23.288;2022-09-11T03:30:25;7.50;;;6.90;;
6422;SDS011;3244;42.708;23.288;2022-09-11T03:32:52;10.23;;;7.63;;
6422;SDS011;3244;42.708;23.288;2022-09-11T03:35:20;7.60;;;6.85;;
6422;SDS011;3244;42.708;23.288;2022-09-11T03:37:47;8.65;;;8.00;;
6422;SDS011;3244;42.708;23.288;2022-09-11T03:40:14;7.72;;;7.00;;
6422;SDS011;3244;42.708;23.288;2022-09-11T03:42:41;6.85;;;6.35;;
6422;SDS011;3244;42.708;23.288;2022-09-11T03:45:08;7.63;;;7.00;;
6422;SDS011;3244;42.708;23.288;2022-09-11T03:47:35;7.93;;;7.43;;
6422;SDS011;3244;42.708;23.288;2022-09-11T03:50:04;7.50;;;6.90;;
6422;SDS011;3244;42.708;23.288;2022-09-11T03:52:33;8.07;;;7.18;;
6422;SDS011;3244;42.708;23.288;2022-09-11T03:55:00;6.75;;;6.13;;
6422;SDS011;3244;42.708;23.288;2022-09-11T03:57:27;10.57;;;7.75;;
6422;SDS011;3244;42.708;23.288;2022-09-11T03:59:54;7.80;;;7.00;;
6422;SDS011;3244;42.708;23.288;2022-09-11T04:02:22;7.57;;;6.97;;
6422;SDS011;3244;42.708;23.288;2022-09-11T04:04:49;8.02;;;6.97;;
6422;SDS011;3244;42.708;23.288;2022-09-11T04:07:15;8.00;;;6.82;;
6422;SDS011;3244;42.708;23.288;2022-09-11T04:09:43;7.63;;;6.95;;
6422;SDS011;3244;42.708;23.288;2022-09-11T04:12:10;9.43;;;8.25;;
6422;SDS011;3244;42.708;23.288;2022-09-11T04:14:37;7.90;;;7.20;;
6422;SDS011;3244;42.708;23.288;2022-09-11T04:17:04;7.60;;;6.90;;
6422;SDS011;3244;42.708;23.288;2022-09-11T04:19:32;10.00;;;7.07;;
6422;SDS011;3244;42.708;23.288;2022-09-11T04:21:59;7.35;;;6.68;;
6422;SDS011;3244;42.708;23.288;2022-09-11T04:24:26;8.75;;;7.95;;
6422;SDS011;3244;42.708;23.288;2022-09-11T04:26:54;8.38;;;7.28;;
6422;SDS011;3244;42.708;23.288;2022-09-11T04:29:21;7.70;;;7.15;;
6422;SDS011;3244;42.708;23.288;2022-09-11T04:31:48;7.10;;;6.65;;
6422;SDS011;3244;42.708;23.288;2022-09-11T04:34:15;10.40;;;7.55;;
6422;SDS011;3244;42.708;23.288;2022-09-11T04:36:42;7.70;;;7.00;;
6422;SDS011;3244;42.708;23.288;2022-09-11T04:39:09;7.07;;;6.57;;
6422;SDS011;3244;42.708;23.288;2022-09-11T04:41:36;7.13;;;6.55;;
6422;SDS011;3244;42.708;23.288;2022-09-11T04:44:05;7.93;;;6.32;;
6422;SDS011;3244;42.708;23.288;2022-09-11T04:46:31;9.45;;;6.68;;
6422;SDS011;3244;42.708;23.288;2022-09-11T04:48:58;7.28;;;6.50;;
6422;SDS011;3244;42.708;23.288;2022-09-11T04:51:26;8.13;;;7.50;;
6422;SDS011;3244;42.708;23.288;2022-09-11T04:53:55;9.07;;;8.27;;
6422;SDS011;3244;42.708;23.288;2022-09-11T04:56:25;7.60;;;6.97;;
6422;SDS011;3244;42.708;23.288;2022-09-11T04:58:54;8.20;;;7.47;;
6422;SDS011;3244;42.708;23.288;2022-09-11T05:01:24;8.43;;;7.13;;
6422;SDS011;3244;42.708;23.288;2022-09-11T05:03:52;8.13;;;7.35;;
6422;SDS011;3244;42.708;23.288;2022-09-11T05:06:20;8.38;;;7.65;;
6422;SDS011;3244;42.708;23.288;2022-09-11T05:08:48;8.45;;;7.90;;
6422;SDS011;3244;42.708;23.288;2022-09-11T05:11:16;10.27;;;8.35;;
6422;SDS011;3244;42.708;23.288;2022-09-11T05:13:45;10.70;;;8.55;;
6422;SDS011;3244;42.708;23.288;2022-09-11T05:16:13;7.95;;;7.30;;
6422;SDS011;3244;42.708;23.288;2022-09-11T05:18:42;8.48;;;7.95;;
6422;SDS011;3244;42.708;23.288;2022-09-11T05:21:16;8.70;;;8.10;;
6422;SDS011;3244;42.708;23.288;2022-09-11T05:23:45;8.57;;;7.75;;
6422;SDS011;3244;42.708;23.288;2022-09-11T05:26:14;8.00;;;7.30;;
6422;SDS011;3244;42.708;23.288;2022-09-11T05:28:42;9.60;;;6.93;;
6422;SDS011;3244;42.708;23.288;2022-09-11T05:31:09;7.85;;;7.15;;
6422;SDS011;3244;42.708;23.288;2022-09-11T05:33:37;7.35;;;6.63;;
6422;SDS011;3244;42.708;23.288;2022-09-11T05:36:06;8.95;;;6.47;;
6422;SDS011;3244;42.708;23.288;2022-09-11T05:38:33;7.07;;;6.57;;
6422;SDS011;3244;42.708;23.288;2022-09-11T05:41:01;6.40;;;5.65;;
6422;SDS011;3244;42.708;23.288;2022-09-11T05:43:31;6.75;;;6.10;;
6422;SDS011;3244;42.708;23.288;2022-09-11T05:45:58;6.40;;;5.97;;
6422;SDS011;3244;42.708;23.288;2022-09-11T05:48:26;6.85;;;6.25;;
6422;SDS011;3244;42.708;23.288;2022-09-11T05:50:54;7.13;;;6.50;;
6422;SDS011;3244;42.708;23.288;2022-09-11T05:53:25;7.18;;;6.47;;
6422;SDS011;3244;42.708;23.288;2022-09-11T05:55:52;8.23;;;7.03;;
6422;SDS011;3244;42.708;23.288;2022-09-11T05:58:20;7.75;;;6.88;;
6422;SDS011;3244;42.708;23.288;2022-09-11T06:00:47;7.30;;;6.85;;
6422;SDS011;3244;42.708;23.288;2022-09-11T06:03:14;7.47;;;6.97;;
6422;SDS011;3244;42.708;23.288;2022-09-11T06:05:42;9.38;;;8.68;;
6422;SDS011;3244;42.708;23.288;2022-09-11T06:08:09;8.35;;;7.70;;
6422;SDS011;3244;42.708;23.288;2022-09-11T06:10:42;8.23;;;7.57;;
6422;SDS011;3244;42.708;23.288;2022-09-11T06:13:11;12.55;;;9.45;;
6422;SDS011;3244;42.708;23.288;2022-09-11T06:15:42;8.45;;;7.80;;
6422;SDS011;3244;42.708;23.288;2022-09-11T06:18:10;8.57;;;7.88;;
6422;SDS011;3244;42.708;23.288;2022-09-11T06:20:36;8.88;;;8.10;;
6422;SDS011;3244;42.708;23.288;2022-09-11T06:23:03;8.52;;;7.93;;
6422;SDS011;3244;42.708;23.288;2022-09-11T06:25:30;8.02;;;7.35;;
6422;SDS011;3244;42.708;23.288;2022-09-11T06:27:58;9.60;;;8.80;;
6422;SDS011;3244;42.708;23.288;2022-09-11T06:30:25;8.93;;;8.10;;
6422;SDS011;3244;42.708;23.288;2022-09-11T06:32:52;9.00;;;8.40;;
6422;SDS011;3244;42.708;23.288;2022-09-11T06:35:20;7.95;;;7.45;;
6422;SDS011;3244;42.708;23.288;2022-09-11T06:37:47;9.52;;;8.55;;
6422;SDS011;3244;42.708;23.288;2022-09-11T06:40:14;8.40;;;7.70;;
6422;SDS011;3244;42.708;23.288;2022-09-11T06:42:42;8.18;;;7.68;;
6422;SDS011;3244;42.708;23.288;2022-09-11T06:45:10;8.13;;;7.53;;
6422;SDS011;3244;42.708;23.288;2022-09-11T06:47:37;8.00;;;7.57;;
6422;SDS011;3244;42.708;23.288;2022-09-11T06:50:04;9.23;;;8.63;;
6422;SDS011;3244;42.708;23.288;2022-09-11T06:52:32;10.15;;;9.30;;
6422;SDS011;3244;42.708;23.288;2022-09-11T06:54:59;9.98;;;9.18;;
6422;SDS011;3244;42.708;23.288;2022-09-11T06:57:27;9.95;;;9.27;;
6422;SDS011;3244;42.708;23.288;2022-09-11T06:59:53;9.02;;;8.10;;
6422;SDS011;3244;42.708;23.288;2022-09-11T07:02:23;10.48;;;8.00;;
6422;SDS011;3244;42.708;23.288;2022-09-11T07:04:50;8.93;;;8.43;;
6422;SDS011;3244;42.708;23.288;2022-09-11T07:07:17;8.48;;;7.93;;
6422;SDS011;3244;42.708;23.288;2022-09-11T07:09:44;13.50;;;8.73;;
6422;SDS011;3244;42.708;23.288;2022-09-11T07:12:12;13.60;;;12.23;;
6422;SDS011;3244;42.708;23.288;2022-09-11T07:14:38;9.73;;;8.80;;
6422;SDS011;3244;42.708;23.288;2022-09-11T07:17:05;12.15;;;11.23;;
6422;SDS011;3244;42.708;23.288;2022-09-11T07:19:33;9.68;;;8.77;;
6422;SDS011;3244;42.708;23.288;2022-09-11T07:22:00;13.50;;;12.32;;
6422;SDS011;3244;42.708;23.288;2022-09-11T07:24:27;9.35;;;8.75;;
6422;SDS011;3244;42.708;23.288;2022-09-11T07:26:53;7.82;;;7.25;;
6422;SDS011;3244;42.708;23.288;2022-09-11T07:29:20;14.02;;;12.70;;
6422;SDS011;3244;42.708;23.288;2022-09-11T07:31:47;11.80;;;10.70;;
6422;SDS011;3244;42.708;23.288;2022-09-11T07:34:14;7.90;;;7.38;;
6422;SDS011;3244;42.708;23.288;2022-09-11T07:36:42;11.38;;;10.40;;
6422;SDS011;3244;42.708;23.288;2022-09-11T07:39:09;9.27;;;8.68;;
6422;SDS011;3244;42.708;23.288;2022-09-11T07:41:36;10.73;;;9.90;;
6422;SDS011;3244;42.708;23.288;2022-09-11T07:44:03;7.53;;;7.05;;
6422;SDS011;3244;42.708;23.288;2022-09-11T07:46:31;7.03;;;6.47;;
6422;SDS011;3244;42.708;23.288;2022-09-11T07:48:58;7.93;;;7.43;;
6422;SDS011;3244;42.708;23.288;2022-09-11T07:51:26;10.52;;;9.27;;
6422;SDS011;3244;42.708;23.288;2022-09-11T07:53:55;7.63;;;7.13;;
6422;SDS011;3244;42.708;23.288;2022-09-11T07:56:24;9.00;;;8.25;;
6422;SDS011;3244;42.708;23.288;2022-09-11T07:58:52;7.63;;;7.13;;
6422;SDS011;3244;42.708;23.288;2022-09-11T08:01:21;8.70;;;8.05;;
6422;SDS011;3244;42.708;23.288;2022-09-11T08:03:52;7.53;;;6.97;;
6422;SDS011;3244;42.708;23.288;2022-09-11T08:06:21;8.10;;;7.07;;
6422;SDS011;3244;42.708;23.288;2022-09-11T08:08:50;8.45;;;7.90;;
6422;SDS011;3244;42.708;23.288;2022-09-11T08:11:19;8.70;;;7.85;;
6422;SDS011;3244;42.708;23.288;2022-09-11T08:13:46;8.57;;;7.80;;
6422;SDS011;3244;42.708;23.288;2022-09-11T08:16:15;9.77;;;7.43;;
6422;SDS011;3244;42.708;23.288;2022-09-11T08:18:41;8.50;;;7.90;;
6422;SDS011;3244;42.708;23.288;2022-09-11T08:21:09;8.98;;;8.15;;
6422;SDS011;3244;42.708;23.288;2022-09-11T08:23:37;8.20;;;7.70;;
6422;SDS011;3244;42.708;23.288;2022-09-11T08:26:06;7.93;;;7.43;;
6422;SDS011;3244;42.708;23.288;2022-09-11T08:28:36;8.13;;;7.45;;
6422;SDS011;3244;42.708;23.288;2022-09-11T08:31:04;15.45;;;13.88;;
6422;SDS011;3244;42.708;23.288;2022-09-11T08:33:32;13.45;;;12.30;;
6422;SDS011;3244;42.708;23.288;2022-09-11T08:35:59;11.00;;;10.00;;
6422;SDS011;3244;42.708;23.288;2022-09-11T08:38:27;11.38;;;10.38;;
6422;SDS011;3244;42.708;23.288;2022-09-11T08:40:55;9.98;;;9.23;;
6422;SDS011;3244;42.708;23.288;2022-09-11T08:43:23;15.00;;;13.73;;
6422;SDS011;3244;42.708;23.288;2022-09-11T08:45:57;8.80;;;8.25;;
6422;SDS011;3244;42.708;23.288;2022-09-11T08:48:30;19.67;;;17.52;;
6422;SDS011;3244;42.708;23.288;2022-09-11T08:51:01;12.20;;;11.20;;
6422;SDS011;3244;42.708;23.288;2022-09-11T08:53:29;8.73;;;7.85;;
6422;SDS011;3244;42.708;23.288;2022-09-11T08:55:58;8.75;;;8.05;;
6422;SDS011;3244;42.708;23.288;2022-09-11T08:58:29;10.50;;;9.68;;
6422;SDS011;3244;42.708;23.288;2022-09-11T09:01:06;16.27;;;14.63;;
6422;SDS011;3244;42.708;23.288;2022-09-11T09:04:02;9.63;;;8.68;;
6422;SDS011;3244;42.708;23.288;2022-09-11T09:06:45;7.95;;;7.55;;
6422;SDS011;3244;42.708;23.288;2022-09-11T09:09:21;8.75;;;8.25;;
6422;SDS011;3244;42.708;23.288;2022-09-11T09:11:58;11.25;;;10.35;;
6422;SDS011;3244;42.708;23.288;2022-09-11T09:14:46;30.05;;;23.70;;
6422;SDS011;3244;42.708;23.288;2022-09-11T09:17:26;17.52;;;15.20;;
6422;SDS011;3244;42.708;23.288;2022-09-11T09:19:59;13.68;;;12.00;;
6422;SDS011;3244;42.708;23.288;2022-09-11T09:22:33;21.10;;;15.32;;
6422;SDS011;3244;42.708;23.288;2022-09-11T09:25:05;12.10;;;11.10;;
6422;SDS011;3244;42.708;23.288;2022-09-11T09:27:37;11.70;;;10.48;;
6422;SDS011;3244;42.708;23.288;2022-09-11T09:30:12;9.18;;;8.50;;
6422;SDS011;3244;42.708;23.288;2022-09-11T09:32:44;8.48;;;7.65;;
6422;SDS011;3244;42.708;23.288;2022-09-11T09:35:19;9.27;;;8.68;;
6422;SDS011;3244;42.708;23.288;2022-09-11T09:37:48;9.38;;;8.73;;
6422;SDS011;3244;42.708;23.288;2022-09-11T09:40:16;8.18;;;7.50;;
6422;SDS011;3244;42.708;23.288;2022-09-11T09:45:53;7.82;;;7.25;;
6422;SDS011;3244;42.708;23.288;2022-09-11T09:48:30;7.57;;;7.13;;
6422;SDS011;3244;42.708;23.288;2022-09-11T09:51:01;7.75;;;7.07;;
6422;SDS011;3244;42.708;23.288;2022-09-11T09:53:28;8.25;;;7.80;;
6422;SDS011;3244;42.708;23.288;2022-09-11T09:56:02;8.80;;;8.23;;
6422;SDS011;3244;42.708;23.288;2022-09-11T09:58:31;7.13;;;6.72;;
6422;SDS011;3244;42.708;23.288;2022-09-11T10:01:00;9.10;;;8.35;;
6422;SDS011;3244;42.708;23.288;2022-09-11T10:03:27;7.45;;;7.05;;
6422;SDS011;3244;42.708;23.288;2022-09-11T10:05:55;8.23;;;7.65;;
6422;SDS011;3244;42.708;23.288;2022-09-11T10:08:33;6.85;;;6.25;;
6422;SDS011;3244;42.708;23.288;2022-09-11T10:11:02;7.32;;;6.75;;
6422;SDS011;3244;42.708;23.288;2022-09-11T10:13:30;7.15;;;6.72;;
6422;SDS011;3244;42.708;23.288;2022-09-11T10:15:59;6.93;;;6.60;;
6422;SDS011;3244;42.708;23.288;2022-09-11T10:18:34;12.07;;;11.07;;
6422;SDS011;3244;42.708;23.288;2022-09-11T10:21:14;12.73;;;11.50;;
6422;SDS011;3244;42.708;23.288;2022-09-11T10:23:54;13.35;;;12.00;;
6422;SDS011;3244;42.708;23.288;2022-09-11T10:26:23;8.65;;;7.80;;
6422;SDS011;3244;42.708;23.288;2022-09-11T10:28:54;7.13;;;6.80;;
6422;SDS011;3244;42.708;23.288;2022-09-11T10:31:26;7.78;;;7.18;;
6422;SDS011;3244;42.708;23.288;2022-09-11T10:33:54;8.10;;;7.50;;
6422;SDS011;3244;42.708;23.288;2022-09-11T10:36:25;8.15;;;7.45;;
6422;SDS011;3244;42.708;23.288;2022-09-11T10:38:54;7.43;;;6.95;;
6422;SDS011;3244;42.708;23.288;2022-09-11T10:41:23;7.90;;;6.95;;
6422;SDS011;3244;42.708;23.288;2022-09-11T10:43:52;7.03;;;6.63;;
6422;SDS011;3244;42.708;23.288;2022-09-11T10:46:25;6.15;;;5.75;;
6422;SDS011;3244;42.708;23.288;2022-09-11T10:49:06;6.72;;;6.28;;
6422;SDS011;3244;42.708;23.288;2022-09-11T10:51:42;6.65;;;6.15;;
6422;SDS011;3244;42.708;23.288;2022-09-11T10:54:29;6.47;;;6.15;;
6422;SDS011;3244;42.708;23.288;2022-09-11T10:57:13;13.85;;;12.43;;
6422;SDS011;3244;42.708;23.288;2022-09-11T10:59:50;8.70;;;8.00;;
6422;SDS011;3244;42.708;23.288;2022-09-11T11:02:26;7.35;;;6.68;;
6422;SDS011;3244;42.708;23.288;2022-09-11T11:04:55;6.38;;;5.88;;
6422;SDS011;3244;42.708;23.288;2022-09-11T11:07:31;7.72;;;7.22;;
6422;SDS011;3244;42.708;23.288;2022-09-11T11:10:13;6.68;;;6.28;;
6422;SDS011;3244;42.708;23.288;2022-09-11T11:12:52;6.63;;;6.07;;
6422;SDS011;3244;42.708;23.288;2022-09-11T11:15:31;6.07;;;5.68;;
6422;SDS011;3244;42.708;23.288;2022-09-11T11:18:23;6.15;;;5.68;;
6422;SDS011;3244;42.708;23.288;2022-09-11T11:21:02;6.57;;;6.07;;
6422;SDS011;3244;42.708;23.288;2022-09-11T11:23:50;6.38;;;5.82;;
6422;SDS011;3244;42.708;23.288;2022-09-11T11:26:38;6.70;;;6.20;;
6422;SDS011;3244;42.708;23.288;2022-09-11T11:29:26;6.10;;;5.72;;
6422;SDS011;3244;42.708;23.288;2022-09-11T11:32:08;6.80;;;6.18;;
6422;SDS011;3244;42.708;23.288;2022-09-11T11:35:05;6.00;;;5.53;;
6422;SDS011;3244;42.708;23.288;2022-09-11T11:37:47;5.97;;;5.38;;
6422;SDS011;3244;42.708;23.288;2022-09-11T11:40:18;6.13;;;5.68;;
6422;SDS011;3244;42.708;23.288;2022-09-11T11:42:53;6.28;;;5.97;;
6422;SDS011;3244;42.708;23.288;2022-09-11T11:45:26;6.07;;;5.78;;
6422;SDS011;3244;42.708;23.288;2022-09-11T11:47:57;6.70;;;6.13;;
6422;SDS011;3244;42.708;23.288;2022-09-11T11:50:27;5.82;;;5.30;;
6422;SDS011;3244;42.708;23.288;2022-09-11T11:53:01;6.65;;;6.25;;
6422;SDS011;3244;42.708;23.288;2022-09-11T11:55:39;6.15;;;5.75;;
6422;SDS011;3244;42.708;23.288;2022-09-11T11:58:13;7.05;;;6.55;;
6422;SDS011;3244;42.708;23.288;2022-09-11T12:00:48;6.43;;;6.03;;
6422;SDS011;3244;42.708;23.288;2022-09-11T12:03:23;6.80;;;6.30;;
6422;SDS011;3244;42.708;23.288;2022-09-11T12:05:55;6.60;;;5.85;;
6422;SDS011;3244;42.708;23.288;2022-09-11T12:08:22;7.60;;;7.13;;
6422;SDS011;3244;42.708;23.288;2022-09-11T12:10:53;8.95;;;8.20;;
6422;SDS011;3244;42.708;23.288;2022-09-11T12:13:26;8.15;;;7.57;;
6422;SDS011;3244;42.708;23.288;2022-09-11T12:15:57;6.95;;;6.55;;
6422;SDS011;3244;42.708;23.288;2022-09-11T12:18:29;7.45;;;6.90;;
6422;SDS011;3244;42.708;23.288;2022-09-11T12:24:13;7.53;;;7.03;;
6422;SDS011;3244;42.708;23.288;2022-09-11T12:26:44;6.55;;;6.10;;
6422;SDS011;3244;42.708;23.288;2022-09-11T12:32:22;6.72;;;5.97;;
6422;SDS011;3244;42.708;23.288;2022-09-11T12:37:54;6.43;;;6.03;;
6422;SDS011;3244;42.708;23.288;2022-09-11T12:40:29;8.93;;;7.05;;
6422;SDS011;3244;42.708;23.288;2022-09-11T12:46:12;6.38;;;5.88;;
6422;SDS011;3244;42.708;23.288;2022-09-11T12:49:17;6.15;;;5.75;;
6422;SDS011;3244;42.708;23.288;2022-09-11T12:51:50;6.57;;;6.25;;
6422;SDS011;3244;42.708;23.288;2022-09-11T12:54:19;6.10;;;5.55;;
6422;SDS011;3244;42.708;23.288;2022-09-11T12:56:50;5.75;;;5.45;;
6422;SDS011;3244;42.708;23.288;2022-09-11T12:59:27;6.82;;;6.40;;
6422;SDS011;3244;42.708;23.288;2022-09-11T13:01:57;5.50;;;5.20;;
6422;SDS011;3244;42.708;23.288;2022-09-11T13:04:25;5.90;;;5.35;;
6422;SDS011;3244;42.708;23.288;2022-09-11T13:06:56;6.47;;;5.97;;
6422;SDS011;3244;42.708;23.288;2022-09-11T13:09:28;6.03;;;5.63;;
6422;SDS011;3244;42.708;23.288;2022-09-11T13:12:36;5.57;;;5.28;;
6422;SDS011;3244;42.708;23.288;2022-09-11T13:18:14;7.03;;;6.32;;
6422;SDS011;3244;42.708;23.288;2022-09-11T13:20:57;15.48;;;7.28;;
6422;SDS011;3244;42.708;23.288;2022-09-11T13:23:25;6.45;;;5.97;;
6422;SDS011;3244;42.708;23.288;2022-09-11T13:25:53;6.78;;;6.18;;
6422;SDS011;3244;42.708;23.288;2022-09-11T13:28:22;7.00;;;5.47;;
6422;SDS011;3244;42.708;23.288;2022-09-11T13:30:53;6.82;;;6.32;;
6422;SDS011;3244;42.708;23.288;2022-09-11T13:33:22;6.32;;;5.85;;
6422;SDS011;3244;42.708;23.288;2022-09-11T13:35:53;6.07;;;5.57;;
6422;SDS011;3244;42.708;23.288;2022-09-11T13:38:22;6.20;;;5.65;;
6422;SDS011;3244;42.708;23.288;2022-09-11T13:40:54;7.53;;;6.63;;
6422;SDS011;3244;42.708;23.288;2022-09-11T13:43:25;6.22;;;5.82;;
6422;SDS011;3244;42.708;23.288;2022-09-11T13:48:47;5.80;;;5.32;;
6422;SDS011;3244;42.708;23.288;2022-09-11T13:51:16;5.28;;;4.97;;
6422;SDS011;3244;42.708;23.288;2022-09-11T13:53:50;5.93;;;5.47;;
6422;SDS011;3244;42.708;23.288;2022-09-11T13:56:38;5.38;;;4.90;;
6422;SDS011;3244;42.708;23.288;2022-09-11T13:59:24;5.53;;;5.07;;
6422;SDS011;3244;42.708;23.288;2022-09-11T14:02:07;5.20;;;4.90;;
6422;SDS011;3244;42.708;23.288;2022-09-11T14:04:49;4.75;;;4.55;;
6422;SDS011;3244;42.708;23.288;2022-09-11T14:07:19;5.20;;;4.80;;
6422;SDS011;3244;42.708;23.288;2022-09-11T14:09:48;6.10;;;5.70;;
6422;SDS011;3244;42.708;23.288;2022-09-11T14:12:23;5.43;;;5.03;;
6422;SDS011;3244;42.708;23.288;2022-09-11T14:14:51;5.90;;;5.28;;
6422;SDS011;3244;42.708;23.288;2022-09-11T14:17:25;6.35;;;6.03;;
6422;SDS011;3244;42.708;23.288;2022-09-11T14:19:52;5.88;;;5.38;;
6422;SDS011;3244;42.708;23.288;2022-09-11T14:22:22;6.00;;;5.53;;
6422;SDS011;3244;42.708;23.288;2022-09-11T14:24:55;6.15;;;5.75;;
6422;SDS011;3244;42.708;23.288;2022-09-11T14:27:32;5.95;;;5.65;;
6422;SDS011;3244;42.708;23.288;2022-09-11T14:30:21;5.40;;;5.07;;
6422;SDS011;3244;42.708;23.288;2022-09-11T14:33:05;5.75;;;5.38;;
6422;SDS011;3244;42.708;23.288;2022-09-11T14:35:40;4.95;;;4.75;;
6422;SDS011;3244;42.708;23.288;2022-09-11T14:38:09;5.80;;;4.63;;
6422;SDS011;3244;42.708;23.288;2022-09-11T14:40:46;5.03;;;4.70;;
6422;SDS011;3244;42.708;23.288;2022-09-11T14:43:14;4.93;;;4.63;;
6422;SDS011;3244;42.708;23.288;2022-09-11T14:45:45;5.15;;;4.65;;
6422;SDS011;3244;42.708;23.288;2022-09-11T14:48:16;4.85;;;4.55;;
6422;SDS011;3244;42.708;23.288;2022-09-11T14:50:43;4.80;;;4.50;;
6422;SDS011;3244;42.708;23.288;2022-09-11T14:53:11;7.50;;;4.93;;
6422;SDS011;3244;42.708;23.288;2022-09-11T14:55:43;5.55;;;4.47;;
6422;SDS011;3244;42.708;23.288;2022-09-11T14:58:10;5.03;;;4.72;;
6422;SDS011;3244;42.708;23.288;2022-09-11T15:00:37;4.43;;;4.03;;
6422;SDS011;3244;42.708;23.288;2022-09-11T15:03:05;5.18;;;4.78;;
6422;SDS011;3244;42.708;23.288;2022-09-11T15:05:33;5.85;;;5.30;;
6422;SDS011;3244;42.708;23.288;2022-09-11T15:08:00;5.82;;;5.43;;
6422;SDS011;3244;42.708;23.288;2022-09-11T15:10:27;18.23;;;5.85;;
6422;SDS011;3244;42.708;23.288;2022-09-11T15:12:56;5.47;;;4.75;;
6422;SDS011;3244;42.708;23.288;2022-09-11T15:15:23;5.20;;;4.90;;
6422;SDS011;3244;42.708;23.288;2022-09-11T15:17:52;5.65;;;5.20;;
6422;SDS011;3244;42.708;23.288;2022-09-11T15:20:20;6.05;;;5.55;;
6422;SDS011;3244;42.708;23.288;2022-09-11T15:22:49;6.72;;;6.20;;
6422;SDS011;3244;42.708;23.288;2022-09-11T15:25:16;6.47;;;5.93;;
6422;SDS011;3244;42.708;23.288;2022-09-11T15:27:43;5.90;;;5.60;;
6422;SDS011;3244;42.708;23.288;2022-09-11T15:30:10;5.90;;;5.50;;
6422;SDS011;3244;42.708;23.288;2022-09-11T15:32:37;7.80;;;5.50;;
6422;SDS011;3244;42.708;23.288;2022-09-11T15:35:04;5.20;;;4.90;;
6422;SDS011;3244;42.708;23.288;2022-09-11T15:37:32;5.55;;;5.25;;
6422;SDS011;3244;42.708;23.288;2022-09-11T15:40:00;7.95;;;5.75;;
6422;SDS011;3244;42.708;23.288;2022-09-11T15:42:27;5.90;;;5.35;;
6422;SDS011;3244;42.708;23.288;2022-09-11T15:44:55;5.88;;;4.95;;
6422;SDS011;3244;42.708;23.288;2022-09-11T15:47:21;6.28;;;5.88;;